sensor_id;sensor_type;location;lat;lon;timestamp;P1;durP1;ratioP1;P2;durP2;ratioP2
4096;SDS011;2062;50.694;7.246;2023-03-09T00:01:32;9.07;;;4.30;;
4096;SDS011;2062;50.694;7.246;2023-03-09T00:04:00;9.52;;;3.83;;
4096;SDS011;2062;50.694;7.246;2023-03-09T00:06:26;9.73;;;4.28;;
4096;SDS011;2062;50.694;7.246;2023-03-09T00:08:54;10.82;;;3.83;;
4096;SDS011;2062;50.694;7.246;2023-03-09T00:11:22;10.63;;;4.00;;
4096;SDS011;2062;50.694;7.246;2023-03-09T00:13:50;8.88;;;3.40;;
4096;SDS011;2062;50.694;7.246;2023-03-09T00:16:18;12.95;;;4.32;;
4096;SDS011;2062;50.694;7.246;2023-03-09T00:18:46;9.23;;;4.00;;
4096;SDS011;2062;50.694;7.246;2023-03-09T00:21:12;9.25;;;3.47;;
4096;SDS011;2062;50.694;7.246;2023-03-09T00:23:59;8.73;;;3.07;;
4096;SDS011;2062;50.694;7.246;2023-03-09T00:26:28;10.02;;;3.40;;
4096;SDS011;2062;50.694;7.246;2023-03-09T00:28:55;8.05;;;3.38;;
4096;SDS011;2062;50.694;7.246;2023-03-09T00:31:22;8.20;;;3.50;;
4096;SDS011;2062;50.694;7.246;2023-03-09T00:33:49;8.05;;;3.50;;
4096;SDS011;2062;50.694;7.246;2023-03-09T00:36:16;9.63;;;4.20;;
4096;SDS011;2062;50.694;7.246;2023-03-09T00:38:43;8.55;;;3.80;;
4096;SDS011;2062;50.694;7.246;2023-03-09T00:41:15;11.32;;;4.30;;
4096;SDS011;2062;50.694;7.246;2023-03-09T00:43:44;8.77;;;4.07;;
4096;SDS011;2062;50.694;7.246;2023-03-09T00:46:11;9.75;;;4.25;;
4096;SDS011;2062;50.694;7.246;2023-03-09T00:48:38;9.67;;;4.13;;
4096;SDS011;2062;50.694;7.246;2023-03-09T00:51:05;9.43;;;4.22;;
4096;SDS011;2062;50.694;7.246;2023-03-09T00:53:32;11.35;;;4.55;;
4096;SDS011;2062;50.694;7.246;2023-03-09T00:56:00;10.05;;;4.50;;
4096;SDS011;2062;50.694;7.246;2023-03-09T00:58:27;11.23;;;4.97;;
4096;SDS011;2062;50.694;7.246;2023-03-09T01:00:56;9.83;;;4.37;;
4096;SDS011;2062;50.694;7.246;2023-03-09T01:03:23;13.00;;;4.90;;
4096;SDS011;2062;50.694;7.246;2023-03-09T01:05:50;10.43;;;4.53;;
4096;SDS011;2062;50.694;7.246;2023-03-09T01:08:17;12.48;;;5.05;;
4096;SDS011;2062;50.694;7.246;2023-03-09T01:10:45;12.10;;;5.15;;
4096;SDS011;2062;50.694;7.246;2023-03-09T01:13:12;10.83;;;4.67;;
4096;SDS011;2062;50.694;7.246;2023-03-09T01:15:38;14.50;;;4.88;;
4096;SDS011;2062;50.694;7.246;2023-03-09T01:18:07;9.00;;;4.18;;
4096;SDS011;2062;50.694;7.246;2023-03-09T01:20:34;12.38;;;4.20;;
4096;SDS011;2062;50.694;7.246;2023-03-09T01:23:00;9.85;;;4.32;;
4096;SDS011;2062;50.694;7.246;2023-03-09T01:25:27;9.17;;;4.17;;
4096;SDS011;2062;50.694;7.246;2023-03-09T01:27:54;10.32;;;4.22;;
4096;SDS011;2062;50.694;7.246;2023-03-09T01:30:21;10.38;;;4.80;;
4096;SDS011;2062;50.694;7.246;2023-03-09T01:32:48;11.93;;;5.20;;
4096;SDS011;2062;50.694;7.246;2023-03-09T01:35:17;8.90;;;4.00;;
4096;SDS011;2062;50.694;7.246;2023-03-09T01:37:44;10.93;;;4.70;;
4096;SDS011;2062;50.694;7.246;2023-03-09T01:40:11;10.15;;;4.70;;
4096;SDS011;2062;50.694;7.246;2023-03-09T01:42:43;10.18;;;4.40;;
4096;SDS011;2062;50.694;7.246;2023-03-09T01:48:12;11.25;;;4.85;;
4096;SDS011;2062;50.694;7.246;2023-03-09T01:50:40;9.80;;;4.33;;
4096;SDS011;2062;50.694;7.246;2023-03-09T01:53:11;10.25;;;4.95;;
4096;SDS011;2062;50.694;7.246;2023-03-09T01:55:42;9.05;;;4.07;;
4096;SDS011;2062;50.694;7.246;2023-03-09T01:58:13;9.55;;;4.55;;
4096;SDS011;2062;50.694;7.246;2023-03-09T02:00:42;9.10;;;4.22;;
4096;SDS011;2062;50.694;7.246;2023-03-09T02:03:15;9.73;;;4.13;;
4096;SDS011;2062;50.694;7.246;2023-03-09T02:05:48;9.38;;;4.47;;
4096;SDS011;2062;50.694;7.246;2023-03-09T02:08:19;10.82;;;4.35;;
4096;SDS011;2062;50.694;7.246;2023-03-09T02:10:48;11.27;;;4.53;;
4096;SDS011;2062;50.694;7.246;2023-03-09T02:13:19;10.15;;;4.25;;
4096;SDS011;2062;50.694;7.246;2023-03-09T02:15:48;9.67;;;3.77;;
4096;SDS011;2062;50.694;7.246;2023-03-09T02:18:15;9.02;;;3.47;;
4096;SDS011;2062;50.694;7.246;2023-03-09T02:20:43;8.82;;;3.72;;
4096;SDS011;2062;50.694;7.246;2023-03-09T02:23:17;9.15;;;3.28;;
4096;SDS011;2062;50.694;7.246;2023-03-09T02:25:54;7.85;;;3.42;;
4096;SDS011;2062;50.694;7.246;2023-03-09T02:28:29;8.00;;;3.20;;
4096;SDS011;2062;50.694;7.246;2023-03-09T02:30:56;7.88;;;3.55;;
4096;SDS011;2062;50.694;7.246;2023-03-09T02:33:24;7.97;;;3.50;;
4096;SDS011;2062;50.694;7.246;2023-03-09T02:35:52;8.15;;;3.20;;
4096;SDS011;2062;50.694;7.246;2023-03-09T02:38:20;8.38;;;3.40;;
4096;SDS011;2062;50.694;7.246;2023-03-09T02:40:47;11.87;;;3.87;;
4096;SDS011;2062;50.694;7.246;2023-03-09T02:43:16;9.13;;;3.65;;
4096;SDS011;2062;50.694;7.246;2023-03-09T02:45:47;8.82;;;3.88;;
4096;SDS011;2062;50.694;7.246;2023-03-09T02:48:15;8.50;;;3.40;;
4096;SDS011;2062;50.694;7.246;2023-03-09T02:50:42;11.23;;;4.05;;
4096;SDS011;2062;50.694;7.246;2023-03-09T02:53:09;9.43;;;3.53;;
4096;SDS011;2062;50.694;7.246;2023-03-09T02:55:36;9.95;;;4.15;;
4096;SDS011;2062;50.694;7.246;2023-03-09T02:58:03;10.32;;;3.53;;
4096;SDS011;2062;50.694;7.246;2023-03-09T03:00:30;9.98;;;3.80;;
4096;SDS011;2062;50.694;7.246;2023-03-09T03:02:58;7.88;;;3.42;;
4096;SDS011;2062;50.694;7.246;2023-03-09T03:05:25;7.57;;;3.10;;
4096;SDS011;2062;50.694;7.246;2023-03-09T03:07:51;8.73;;;3.20;;
4096;SDS011;2062;50.694;7.246;2023-03-09T03:10:18;8.73;;;3.53;;
4096;SDS011;2062;50.694;7.246;2023-03-09T03:12:45;8.70;;;3.50;;
4096;SDS011;2062;50.694;7.246;2023-03-09T03:15:12;7.50;;;3.10;;
4096;SDS011;2062;50.694;7.246;2023-03-09T03:17:39;8.10;;;3.33;;
4096;SDS011;2062;50.694;7.246;2023-03-09T03:20:08;9.32;;;3.80;;
4096;SDS011;2062;50.694;7.246;2023-03-09T03:22:39;9.27;;;4.10;;
4096;SDS011;2062;50.694;7.246;2023-03-09T03:25:07;8.73;;;3.83;;
4096;SDS011;2062;50.694;7.246;2023-03-09T03:27:34;10.27;;;4.00;;
4096;SDS011;2062;50.694;7.246;2023-03-09T03:30:01;8.93;;;3.70;;
4096;SDS011;2062;50.694;7.246;2023-03-09T03:32:28;9.05;;;3.53;;
4096;SDS011;2062;50.694;7.246;2023-03-09T03:34:55;10.57;;;4.10;;
4096;SDS011;2062;50.694;7.246;2023-03-09T03:37:24;9.07;;;3.65;;
4096;SDS011;2062;50.694;7.246;2023-03-09T03:39:51;8.45;;;3.67;;
4096;SDS011;2062;50.694;7.246;2023-03-09T03:42:18;8.70;;;3.60;;
4096;SDS011;2062;50.694;7.246;2023-03-09T03:44:45;9.70;;;3.85;;
4096;SDS011;2062;50.694;7.246;2023-03-09T03:47:11;9.60;;;3.97;;
4096;SDS011;2062;50.694;7.246;2023-03-09T03:49:38;8.82;;;3.88;;
4096;SDS011;2062;50.694;7.246;2023-03-09T03:52:05;9.07;;;4.18;;
4096;SDS011;2062;50.694;7.246;2023-03-09T03:54:34;9.30;;;4.07;;
4096;SDS011;2062;50.694;7.246;2023-03-09T03:57:01;9.40;;;4.18;;
4096;SDS011;2062;50.694;7.246;2023-03-09T03:59:29;8.48;;;3.70;;
4096;SDS011;2062;50.694;7.246;2023-03-09T04:01:56;9.18;;;4.10;;
4096;SDS011;2062;50.694;7.246;2023-03-09T04:04:23;11.05;;;4.82;;
4096;SDS011;2062;50.694;7.246;2023-03-09T04:06:53;12.17;;;4.53;;
4096;SDS011;2062;50.694;7.246;2023-03-09T04:09:20;12.95;;;5.72;;
4096;SDS011;2062;50.694;7.246;2023-03-09T04:11:48;11.25;;;5.43;;
4096;SDS011;2062;50.694;7.246;2023-03-09T04:14:15;11.85;;;5.70;;
4096;SDS011;2062;50.694;7.246;2023-03-09T04:16:42;11.70;;;5.28;;
4096;SDS011;2062;50.694;7.246;2023-03-09T04:19:09;12.40;;;5.50;;
4096;SDS011;2062;50.694;7.246;2023-03-09T04:21:36;12.55;;;5.28;;
4096;SDS011;2062;50.694;7.246;2023-03-09T04:24:03;12.60;;;5.70;;
4096;SDS011;2062;50.694;7.246;2023-03-09T04:26:30;13.27;;;6.68;;
4096;SDS011;2062;50.694;7.246;2023-03-09T04:28:58;13.52;;;6.32;;
4096;SDS011;2062;50.694;7.246;2023-03-09T04:31:25;13.37;;;6.10;;
4096;SDS011;2062;50.694;7.246;2023-03-09T04:33:52;15.15;;;6.50;;
4096;SDS011;2062;50.694;7.246;2023-03-09T04:36:19;15.75;;;7.25;;
4096;SDS011;2062;50.694;7.246;2023-03-09T04:38:46;14.27;;;6.47;;
4096;SDS011;2062;50.694;7.246;2023-03-09T04:41:13;15.60;;;6.90;;
4096;SDS011;2062;50.694;7.246;2023-03-09T04:43:40;14.73;;;7.20;;
4096;SDS011;2062;50.694;7.246;2023-03-09T04:46:08;16.15;;;7.20;;
4096;SDS011;2062;50.694;7.246;2023-03-09T04:48:35;16.98;;;7.10;;
4096;SDS011;2062;50.694;7.246;2023-03-09T04:51:02;15.07;;;7.05;;
4096;SDS011;2062;50.694;7.246;2023-03-09T04:53:29;15.77;;;7.40;;
4096;SDS011;2062;50.694;7.246;2023-03-09T04:55:56;16.43;;;7.40;;
4096;SDS011;2062;50.694;7.246;2023-03-09T04:58:23;15.60;;;7.13;;
4096;SDS011;2062;50.694;7.246;2023-03-09T05:00:50;15.63;;;7.47;;
4096;SDS011;2062;50.694;7.246;2023-03-09T05:03:19;14.80;;;6.78;;
4096;SDS011;2062;50.694;7.246;2023-03-09T05:05:46;14.35;;;6.65;;
4096;SDS011;2062;50.694;7.246;2023-03-09T05:08:13;14.47;;;6.73;;
4096;SDS011;2062;50.694;7.246;2023-03-09T05:10:40;14.85;;;6.13;;
4096;SDS011;2062;50.694;7.246;2023-03-09T05:13:07;15.70;;;6.45;;
4096;SDS011;2062;50.694;7.246;2023-03-09T05:15:33;14.15;;;6.40;;
4096;SDS011;2062;50.694;7.246;2023-03-09T05:18:03;13.55;;;6.47;;
4096;SDS011;2062;50.694;7.246;2023-03-09T05:20:31;15.20;;;6.43;;
4096;SDS011;2062;50.694;7.246;2023-03-09T05:22:59;12.85;;;5.80;;
4096;SDS011;2062;50.694;7.246;2023-03-09T05:25:26;15.15;;;6.47;;
4096;SDS011;2062;50.694;7.246;2023-03-09T05:27:53;13.52;;;6.35;;
4096;SDS011;2062;50.694;7.246;2023-03-09T05:30:20;12.88;;;6.00;;
4096;SDS011;2062;50.694;7.246;2023-03-09T05:32:48;16.00;;;7.00;;
4096;SDS011;2062;50.694;7.246;2023-03-09T05:35:15;17.35;;;6.63;;
4096;SDS011;2062;50.694;7.246;2023-03-09T05:37:43;16.85;;;7.22;;
4096;SDS011;2062;50.694;7.246;2023-03-09T05:40:10;17.13;;;7.95;;
4096;SDS011;2062;50.694;7.246;2023-03-09T05:42:38;16.75;;;7.72;;
4096;SDS011;2062;50.694;7.246;2023-03-09T05:45:05;15.20;;;6.93;;
4096;SDS011;2062;50.694;7.246;2023-03-09T05:47:34;16.33;;;7.40;;
4096;SDS011;2062;50.694;7.246;2023-03-09T05:50:04;16.55;;;7.28;;
4096;SDS011;2062;50.694;7.246;2023-03-09T05:52:31;16.77;;;7.53;;
4096;SDS011;2062;50.694;7.246;2023-03-09T05:55:00;16.00;;;7.20;;
4096;SDS011;2062;50.694;7.246;2023-03-09T05:57:27;16.60;;;8.30;;
4096;SDS011;2062;50.694;7.246;2023-03-09T05:59:54;14.32;;;6.93;;
4096;SDS011;2062;50.694;7.246;2023-03-09T06:02:20;14.38;;;7.13;;
4096;SDS011;2062;50.694;7.246;2023-03-09T06:04:48;14.52;;;7.40;;
4096;SDS011;2062;50.694;7.246;2023-03-09T06:07:16;14.43;;;7.13;;
4096;SDS011;2062;50.694;7.246;2023-03-09T06:09:42;15.27;;;7.23;;
4096;SDS011;2062;50.694;7.246;2023-03-09T06:12:11;15.50;;;7.57;;
4096;SDS011;2062;50.694;7.246;2023-03-09T06:14:39;13.98;;;6.60;;
4096;SDS011;2062;50.694;7.246;2023-03-09T06:17:06;13.68;;;5.72;;
4096;SDS011;2062;50.694;7.246;2023-03-09T06:19:33;10.45;;;4.57;;
4096;SDS011;2062;50.694;7.246;2023-03-09T06:21:59;9.70;;;4.30;;
4096;SDS011;2062;50.694;7.246;2023-03-09T06:24:26;11.25;;;4.22;;
4096;SDS011;2062;50.694;7.246;2023-03-09T06:26:55;16.85;;;5.10;;
4096;SDS011;2062;50.694;7.246;2023-03-09T06:29:25;13.95;;;5.22;;
4096;SDS011;2062;50.694;7.246;2023-03-09T06:31:52;13.77;;;6.30;;
4096;SDS011;2062;50.694;7.246;2023-03-09T06:34:20;11.43;;;5.53;;
4096;SDS011;2062;50.694;7.246;2023-03-09T06:36:47;12.23;;;5.50;;
4096;SDS011;2062;50.694;7.246;2023-03-09T06:39:13;12.10;;;5.25;;
4096;SDS011;2062;50.694;7.246;2023-03-09T06:41:40;9.48;;;4.72;;
4096;SDS011;2062;50.694;7.246;2023-03-09T06:44:07;13.45;;;7.72;;
4096;SDS011;2062;50.694;7.246;2023-03-09T06:46:35;10.53;;;5.30;;
4096;SDS011;2062;50.694;7.246;2023-03-09T06:49:02;9.68;;;5.15;;
4096;SDS011;2062;50.694;7.246;2023-03-09T06:51:29;10.52;;;4.93;;
4096;SDS011;2062;50.694;7.246;2023-03-09T06:53:56;9.90;;;4.60;;
4096;SDS011;2062;50.694;7.246;2023-03-09T06:56:23;9.20;;;3.97;;
4096;SDS011;2062;50.694;7.246;2023-03-09T06:58:52;10.67;;;4.63;;
4096;SDS011;2062;50.694;7.246;2023-03-09T07:01:19;8.25;;;3.90;;
4096;SDS011;2062;50.694;7.246;2023-03-09T07:03:48;8.60;;;3.67;;
4096;SDS011;2062;50.694;7.246;2023-03-09T07:06:15;7.90;;;3.50;;
4096;SDS011;2062;50.694;7.246;2023-03-09T07:08:41;8.43;;;3.17;;
4096;SDS011;2062;50.694;7.246;2023-03-09T07:11:08;6.93;;;3.10;;
4096;SDS011;2062;50.694;7.246;2023-03-09T07:13:36;7.05;;;3.03;;
4096;SDS011;2062;50.694;7.246;2023-03-09T07:16:03;7.18;;;3.20;;
4096;SDS011;2062;50.694;7.246;2023-03-09T07:18:31;7.45;;;2.83;;
4096;SDS011;2062;50.694;7.246;2023-03-09T07:20:59;7.32;;;2.83;;
4096;SDS011;2062;50.694;7.246;2023-03-09T07:23:27;7.43;;;2.53;;
4096;SDS011;2062;50.694;7.246;2023-03-09T07:25:54;5.35;;;2.25;;
4096;SDS011;2062;50.694;7.246;2023-03-09T07:28:25;6.75;;;2.70;;
4096;SDS011;2062;50.694;7.246;2023-03-09T07:30:52;5.70;;;2.38;;
4096;SDS011;2062;50.694;7.246;2023-03-09T07:33:31;5.97;;;2.40;;
4096;SDS011;2062;50.694;7.246;2023-03-09T07:36:03;6.43;;;2.60;;
4096;SDS011;2062;50.694;7.246;2023-03-09T07:38:31;7.22;;;2.92;;
4096;SDS011;2062;50.694;7.246;2023-03-09T07:40:58;5.97;;;2.78;;
4096;SDS011;2062;50.694;7.246;2023-03-09T07:43:26;7.43;;;3.30;;
4096;SDS011;2062;50.694;7.246;2023-03-09T07:45:54;8.63;;;3.38;;
4096;SDS011;2062;50.694;7.246;2023-03-09T07:48:23;7.40;;;3.40;;
4096;SDS011;2062;50.694;7.246;2023-03-09T07:50:55;8.85;;;4.18;;
4096;SDS011;2062;50.694;7.246;2023-03-09T07:53:31;11.05;;;4.15;;
4096;SDS011;2062;50.694;7.246;2023-03-09T07:56:02;9.35;;;4.00;;
4096;SDS011;2062;50.694;7.246;2023-03-09T07:58:30;10.30;;;3.88;;
4096;SDS011;2062;50.694;7.246;2023-03-09T08:01:01;8.80;;;4.00;;
4096;SDS011;2062;50.694;7.246;2023-03-09T08:03:31;10.70;;;4.10;;
4096;SDS011;2062;50.694;7.246;2023-03-09T08:06:00;9.80;;;4.05;;
4096;SDS011;2062;50.694;7.246;2023-03-09T08:08:33;9.45;;;4.05;;
4096;SDS011;2062;50.694;7.246;2023-03-09T08:11:01;11.68;;;5.38;;
4096;SDS011;2062;50.694;7.246;2023-03-09T08:13:29;10.27;;;5.00;;
4096;SDS011;2062;50.694;7.246;2023-03-09T08:15:59;9.25;;;4.30;;
4096;SDS011;2062;50.694;7.246;2023-03-09T08:18:29;8.25;;;3.88;;
4096;SDS011;2062;50.694;7.246;2023-03-09T08:21:02;8.65;;;4.00;;
4096;SDS011;2062;50.694;7.246;2023-03-09T08:23:32;10.20;;;4.65;;
4096;SDS011;2062;50.694;7.246;2023-03-09T08:26:03;8.47;;;4.00;;
4096;SDS011;2062;50.694;7.246;2023-03-09T08:28:30;8.95;;;4.13;;
4096;SDS011;2062;50.694;7.246;2023-03-09T08:30:57;9.32;;;4.47;;
4096;SDS011;2062;50.694;7.246;2023-03-09T08:33:25;9.32;;;4.15;;
4096;SDS011;2062;50.694;7.246;2023-03-09T08:35:53;10.55;;;4.20;;
4096;SDS011;2062;50.694;7.246;2023-03-09T08:38:20;9.03;;;3.97;;
4096;SDS011;2062;50.694;7.246;2023-03-09T08:40:48;9.02;;;3.63;;
4096;SDS011;2062;50.694;7.246;2023-03-09T08:43:15;8.90;;;4.03;;
4096;SDS011;2062;50.694;7.246;2023-03-09T08:45:42;7.93;;;3.67;;
4096;SDS011;2062;50.694;7.246;2023-03-09T08:48:09;9.10;;;4.20;;
4096;SDS011;2062;50.694;7.246;2023-03-09T08:50:36;8.07;;;3.60;;
4096;SDS011;2062;50.694;7.246;2023-03-09T08:53:04;7.57;;;3.63;;
4096;SDS011;2062;50.694;7.246;2023-03-09T08:55:36;7.57;;;3.60;;
4096;SDS011;2062;50.694;7.246;2023-03-09T08:58:08;7.97;;;3.60;;
4096;SDS011;2062;50.694;7.246;2023-03-09T09:00:35;8.32;;;3.80;;
4096;SDS011;2062;50.694;7.246;2023-03-09T09:03:10;7.50;;;3.40;;
4096;SDS011;2062;50.694;7.246;2023-03-09T09:05:37;7.10;;;3.15;;
4096;SDS011;2062;50.694;7.246;2023-03-09T09:08:13;6.97;;;3.20;;
4096;SDS011;2062;50.694;7.246;2023-03-09T09:10:43;7.10;;;2.95;;
4096;SDS011;2062;50.694;7.246;2023-03-09T09:13:14;9.25;;;2.40;;
4096;SDS011;2062;50.694;7.246;2023-03-09T09:15:41;4.70;;;1.73;;
4096;SDS011;2062;50.694;7.246;2023-03-09T09:18:08;5.10;;;1.95;;
4096;SDS011;2062;50.694;7.246;2023-03-09T09:20:38;4.45;;;1.55;;
4096;SDS011;2062;50.694;7.246;2023-03-09T09:23:05;4.78;;;1.63;;
4096;SDS011;2062;50.694;7.246;2023-03-09T09:25:32;3.92;;;1.42;;
4096;SDS011;2062;50.694;7.246;2023-03-09T09:28:00;5.17;;;1.40;;
4096;SDS011;2062;50.694;7.246;2023-03-09T09:30:28;4.35;;;1.48;;
4096;SDS011;2062;50.694;7.246;2023-03-09T09:32:58;3.70;;;1.10;;
4096;SDS011;2062;50.694;7.246;2023-03-09T09:35:31;4.68;;;1.40;;
4096;SDS011;2062;50.694;7.246;2023-03-09T09:38:01;3.92;;;1.30;;
4096;SDS011;2062;50.694;7.246;2023-03-09T09:40:28;4.10;;;1.40;;
4096;SDS011;2062;50.694;7.246;2023-03-09T09:42:55;3.63;;;1.00;;
4096;SDS011;2062;50.694;7.246;2023-03-09T09:45:32;4.68;;;1.30;;
4096;SDS011;2062;50.694;7.246;2023-03-09T09:48:03;4.53;;;1.40;;
4096;SDS011;2062;50.694;7.246;2023-03-09T09:50:39;3.40;;;1.00;;
4096;SDS011;2062;50.694;7.246;2023-03-09T09:53:17;3.43;;;0.93;;
4096;SDS011;2062;50.694;7.246;2023-03-09T09:55:55;3.67;;;1.10;;
4096;SDS011;2062;50.694;7.246;2023-03-09T09:58:25;3.45;;;1.08;;
4096;SDS011;2062;50.694;7.246;2023-03-09T10:01:04;3.70;;;1.00;;
4096;SDS011;2062;50.694;7.246;2023-03-09T10:03:39;4.05;;;1.10;;
4096;SDS011;2062;50.694;7.246;2023-03-09T10:06:11;4.20;;;1.20;;
4096;SDS011;2062;50.694;7.246;2023-03-09T10:08:41;3.45;;;0.90;;
4096;SDS011;2062;50.694;7.246;2023-03-09T10:11:13;3.78;;;1.10;;
4096;SDS011;2062;50.694;7.246;2023-03-09T10:13:47;3.92;;;1.00;;
4096;SDS011;2062;50.694;7.246;2023-03-09T10:16:20;4.28;;;1.35;;
4096;SDS011;2062;50.694;7.246;2023-03-09T10:18:50;3.97;;;1.20;;
4096;SDS011;2062;50.694;7.246;2023-03-09T10:21:21;8.00;;;1.67;;
4096;SDS011;2062;50.694;7.246;2023-03-09T10:23:52;3.60;;;1.20;;
4096;SDS011;2062;50.694;7.246;2023-03-09T10:26:22;4.22;;;1.50;;
4096;SDS011;2062;50.694;7.246;2023-03-09T10:29:00;4.65;;;1.52;;
4096;SDS011;2062;50.694;7.246;2023-03-09T10:31:34;5.83;;;1.40;;
4096;SDS011;2062;50.694;7.246;2023-03-09T10:34:11;5.60;;;1.90;;
4096;SDS011;2062;50.694;7.246;2023-03-09T10:36:42;4.45;;;1.90;;
4096;SDS011;2062;50.694;7.246;2023-03-09T10:39:19;4.45;;;1.67;;
4096;SDS011;2062;50.694;7.246;2023-03-09T10:41:47;4.95;;;1.70;;
4096;SDS011;2062;50.694;7.246;2023-03-09T10:44:14;3.90;;;1.50;;
4096;SDS011;2062;50.694;7.246;2023-03-09T10:46:56;5.38;;;1.88;;
4096;SDS011;2062;50.694;7.246;2023-03-09T10:49:25;4.85;;;1.92;;
4096;SDS011;2062;50.694;7.246;2023-03-09T10:51:56;4.70;;;1.90;;
4096;SDS011;2062;50.694;7.246;2023-03-09T10:54:28;4.15;;;1.65;;
4096;SDS011;2062;50.694;7.246;2023-03-09T10:56:59;4.97;;;1.90;;
4096;SDS011;2062;50.694;7.246;2023-03-09T10:59:27;5.85;;;1.75;;
4096;SDS011;2062;50.694;7.246;2023-03-09T11:01:57;6.90;;;2.45;;
4096;SDS011;2062;50.694;7.246;2023-03-09T11:04:26;5.10;;;2.10;;
4096;SDS011;2062;50.694;7.246;2023-03-09T11:06:55;6.38;;;2.30;;
4096;SDS011;2062;50.694;7.246;2023-03-09T11:09:27;5.90;;;2.00;;
4096;SDS011;2062;50.694;7.246;2023-03-09T11:12:07;6.15;;;2.00;;
4096;SDS011;2062;50.694;7.246;2023-03-09T11:14:45;4.75;;;1.85;;
4096;SDS011;2062;50.694;7.246;2023-03-09T11:17:26;4.72;;;1.80;;
4096;SDS011;2062;50.694;7.246;2023-03-09T11:20:18;5.00;;;2.03;;
4096;SDS011;2062;50.694;7.246;2023-03-09T11:22:53;6.37;;;2.30;;
4096;SDS011;2062;50.694;7.246;2023-03-09T11:25:36;5.28;;;2.42;;
4096;SDS011;2062;50.694;7.246;2023-03-09T11:28:21;5.10;;;2.25;;
4096;SDS011;2062;50.694;7.246;2023-03-09T11:30:55;5.72;;;2.42;;
4096;SDS011;2062;50.694;7.246;2023-03-09T11:33:25;6.22;;;2.60;;
4096;SDS011;2062;50.694;7.246;2023-03-09T11:35:55;6.13;;;2.80;;
4096;SDS011;2062;50.694;7.246;2023-03-09T11:38:22;6.15;;;2.95;;
4096;SDS011;2062;50.694;7.246;2023-03-09T11:40:56;6.75;;;2.65;;
4096;SDS011;2062;50.694;7.246;2023-03-09T11:43:30;7.03;;;2.97;;
4096;SDS011;2062;50.694;7.246;2023-03-09T11:46:02;7.50;;;3.40;;
4096;SDS011;2062;50.694;7.246;2023-03-09T11:48:35;6.27;;;2.60;;
4096;SDS011;2062;50.694;7.246;2023-03-09T11:51:05;6.05;;;2.83;;
4096;SDS011;2062;50.694;7.246;2023-03-09T11:53:37;6.00;;;2.78;;
4096;SDS011;2062;50.694;7.246;2023-03-09T11:56:16;6.63;;;3.10;;
4096;SDS011;2062;50.694;7.246;2023-03-09T11:58:46;8.35;;;3.15;;
4096;SDS011;2062;50.694;7.246;2023-03-09T12:01:17;6.43;;;3.23;;
4096;SDS011;2062;50.694;7.246;2023-03-09T12:03:55;6.85;;;3.10;;
4096;SDS011;2062;50.694;7.246;2023-03-09T12:09:23;5.97;;;3.03;;
4096;SDS011;2062;50.694;7.246;2023-03-09T12:11:55;6.50;;;3.20;;
4096;SDS011;2062;50.694;7.246;2023-03-09T12:14:27;5.60;;;2.87;;
4096;SDS011;2062;50.694;7.246;2023-03-09T12:16:59;5.43;;;2.80;;
4096;SDS011;2062;50.694;7.246;2023-03-09T12:19:31;6.25;;;3.13;;
4096;SDS011;2062;50.694;7.246;2023-03-09T12:22:02;6.13;;;2.75;;
4096;SDS011;2062;50.694;7.246;2023-03-09T12:24:35;5.93;;;2.67;;
4096;SDS011;2062;50.694;7.246;2023-03-09T12:27:11;6.53;;;3.10;;
4096;SDS011;2062;50.694;7.246;2023-03-09T12:29:42;5.85;;;2.60;;
4096;SDS011;2062;50.694;7.246;2023-03-09T12:32:20;6.47;;;2.20;;
4096;SDS011;2062;50.694;7.246;2023-03-09T12:35:04;5.65;;;2.38;;
4096;SDS011;2062;50.694;7.246;2023-03-09T12:37:53;6.03;;;2.35;;
4096;SDS011;2062;50.694;7.246;2023-03-09T12:40:30;6.00;;;2.70;;
4096;SDS011;2062;50.694;7.246;2023-03-09T12:48:59;6.60;;;2.30;;
4096;SDS011;2062;50.694;7.246;2023-03-09T12:51:30;6.25;;;2.40;;
4096;SDS011;2062;50.694;7.246;2023-03-09T12:54:04;5.20;;;2.13;;
4096;SDS011;2062;50.694;7.246;2023-03-09T12:56:44;7.18;;;2.20;;
4096;SDS011;2062;50.694;7.246;2023-03-09T12:59:13;4.65;;;2.00;;
4096;SDS011;2062;50.694;7.246;2023-03-09T13:01:46;4.72;;;1.60;;
4096;SDS011;2062;50.694;7.246;2023-03-09T13:04:14;4.13;;;1.80;;
4096;SDS011;2062;50.694;7.246;2023-03-09T13:06:44;6.87;;;2.00;;
4096;SDS011;2062;50.694;7.246;2023-03-09T13:09:21;4.97;;;1.75;;
4096;SDS011;2062;50.694;7.246;2023-03-09T13:11:57;5.22;;;1.70;;
4096;SDS011;2062;50.694;7.246;2023-03-09T13:17:35;4.55;;;1.80;;
4096;SDS011;2062;50.694;7.246;2023-03-09T13:20:13;4.07;;;1.67;;
4096;SDS011;2062;50.694;7.246;2023-03-09T13:22:51;5.00;;;1.60;;
4096;SDS011;2062;50.694;7.246;2023-03-09T13:25:24;4.32;;;1.58;;
4096;SDS011;2062;50.694;7.246;2023-03-09T13:30:54;6.10;;;1.60;;
4096;SDS011;2062;50.694;7.246;2023-03-09T13:33:25;4.43;;;1.20;;
4096;SDS011;2062;50.694;7.246;2023-03-09T13:35:56;4.60;;;1.25;;
4096;SDS011;2062;50.694;7.246;2023-03-09T13:38:38;6.40;;;1.50;;
4096;SDS011;2062;50.694;7.246;2023-03-09T13:41:11;4.00;;;1.30;;
4096;SDS011;2062;50.694;7.246;2023-03-09T13:43:44;4.88;;;1.20;;
4096;SDS011;2062;50.694;7.246;2023-03-09T13:46:22;3.97;;;1.30;;
4096;SDS011;2062;50.694;7.246;2023-03-09T13:48:53;4.10;;;1.10;;
4096;SDS011;2062;50.694;7.246;2023-03-09T13:51:26;4.53;;;1.08;;
4096;SDS011;2062;50.694;7.246;2023-03-09T13:53:57;4.57;;;1.40;;
4096;SDS011;2062;50.694;7.246;2023-03-09T13:56:24;6.50;;;1.30;;
4096;SDS011;2062;50.694;7.246;2023-03-09T13:58:52;5.63;;;1.20;;
4096;SDS011;2062;50.694;7.246;2023-03-09T14:01:21;4.63;;;1.17;;
4096;SDS011;2062;50.694;7.246;2023-03-09T14:03:53;6.65;;;1.30;;
4096;SDS011;2062;50.694;7.246;2023-03-09T14:06:26;5.53;;;1.25;;
4096;SDS011;2062;50.694;7.246;2023-03-09T14:08:57;6.32;;;1.35;;
4096;SDS011;2062;50.694;7.246;2023-03-09T14:11:31;5.80;;;1.20;;
4096;SDS011;2062;50.694;7.246;2023-03-09T14:13:59;7.05;;;1.40;;
4096;SDS011;2062;50.694;7.246;2023-03-09T14:16:30;4.70;;;1.10;;
4096;SDS011;2062;50.694;7.246;2023-03-09T14:18:59;5.15;;;1.00;;
4096;SDS011;2062;50.694;7.246;2023-03-09T14:21:28;4.80;;;1.30;;
4096;SDS011;2062;50.694;7.246;2023-03-09T14:24:10;5.43;;;1.10;;
4096;SDS011;2062;50.694;7.246;2023-03-09T14:26:38;6.38;;;1.10;;
4096;SDS011;2062;50.694;7.246;2023-03-09T14:29:15;6.43;;;0.90;;
4096;SDS011;2062;50.694;7.246;2023-03-09T14:31:46;5.50;;;0.80;;
4096;SDS011;2062;50.694;7.246;2023-03-09T14:34:25;6.30;;;0.85;;
4096;SDS011;2062;50.694;7.246;2023-03-09T14:36:53;4.83;;;0.73;;
4096;SDS011;2062;50.694;7.246;2023-03-09T14:39:26;4.90;;;0.68;;
4096;SDS011;2062;50.694;7.246;2023-03-09T14:42:01;6.07;;;0.80;;
4096;SDS011;2062;50.694;7.246;2023-03-09T14:44:30;5.95;;;0.77;;
4096;SDS011;2062;50.694;7.246;2023-03-09T14:46:57;4.68;;;0.85;;
4096;SDS011;2062;50.694;7.246;2023-03-09T14:49:24;6.07;;;0.83;;
4096;SDS011;2062;50.694;7.246;2023-03-09T14:51:51;8.35;;;1.00;;
4096;SDS011;2062;50.694;7.246;2023-03-09T14:54:18;6.00;;;1.00;;
4096;SDS011;2062;50.694;7.246;2023-03-09T14:56:46;6.13;;;0.93;;
4096;SDS011;2062;50.694;7.246;2023-03-09T14:59:14;5.72;;;0.80;;
4096;SDS011;2062;50.694;7.246;2023-03-09T15:01:43;8.33;;;1.00;;
4096;SDS011;2062;50.694;7.246;2023-03-09T15:04:14;9.88;;;1.20;;
4096;SDS011;2062;50.694;7.246;2023-03-09T15:06:43;6.03;;;0.85;;
4096;SDS011;2062;50.694;7.246;2023-03-09T15:09:10;10.18;;;1.30;;
4096;SDS011;2062;50.694;7.246;2023-03-09T15:11:38;8.15;;;1.00;;
4096;SDS011;2062;50.694;7.246;2023-03-09T15:14:13;9.20;;;1.27;;
4096;SDS011;2062;50.694;7.246;2023-03-09T15:16:44;7.03;;;1.10;;
4096;SDS011;2062;50.694;7.246;2023-03-09T15:19:14;8.27;;;1.23;;
4096;SDS011;2062;50.694;7.246;2023-03-09T15:21:42;7.90;;;1.27;;
4096;SDS011;2062;50.694;7.246;2023-03-09T15:24:09;12.43;;;1.83;;
4096;SDS011;2062;50.694;7.246;2023-03-09T15:26:36;9.00;;;1.20;;
4096;SDS011;2062;50.694;7.246;2023-03-09T15:29:04;9.32;;;1.25;;
4096;SDS011;2062;50.694;7.246;2023-03-09T15:31:32;11.77;;;1.30;;
4096;SDS011;2062;50.694;7.246;2023-03-09T15:33:59;11.25;;;1.20;;
4096;SDS011;2062;50.694;7.246;2023-03-09T15:36:26;9.65;;;1.30;;
4096;SDS011;2062;50.694;7.246;2023-03-09T15:38:53;12.40;;;1.43;;
4096;SDS011;2062;50.694;7.246;2023-03-09T15:41:20;11.60;;;1.33;;
4096;SDS011;2062;50.694;7.246;2023-03-09T15:43:47;8.50;;;1.50;;